Time;durP1;ratioP1;P1;durP2;ratioP2;P2;SDS_P1;SDS_P2;PMS_P1;PMS_P2;Temp;Humidity;BMP_temperature;BMP_pressure;BME280_temperature;BME280_humidity;BME280_pressure;Samples;Min_cycle;Max_cycle;Signal;HPM_P1;HPM_P2
2022/12/10 00:01:49;;;;;;;51.63;26.45;;;;;;;-4.26;100.00;99935.94;4998188;28;20069;-68
2022/12/10 00:04:15;;;;;;;56.88;26.65;;;;;;;-4.29;100.00;99931.75;4981990;28;20026;-67
2022/12/10 00:06:40;;;;;;;54.65;27.27;;;;;;;-4.34;100.00;99931.56;4997730;28;20548;-67
2022/12/10 00:09:08;;;;;;;49.72;25.25;;;;;;;-4.33;100.00;99935.09;4998254;28;20033;-68
2022/12/10 00:11:34;;;;;;;50.45;26.27;;;;;;;-4.28;100.00;99936.13;4991640;28;20109;-68
2022/12/10 00:13:59;;;;;;;49.70;26.52;;;;;;;-4.36;100.00;99939.06;5001385;28;20037;-67
2022/12/10 00:16:25;;;;;;;49.92;25.98;;;;;;;-4.37;100.00;99942.00;4998076;28;20025;-67
2022/12/10 00:18:51;;;;;;;47.83;25.88;;;;;;;-4.39;100.00;99941.38;4981804;28;20026;-68
2022/12/10 00:21:19;;;;;;;50.40;24.95;;;;;;;-4.42;100.00;99939.91;4997744;28;20519;-68
2022/12/10 00:23:44;;;;;;;48.55;25.75;;;;;;;-4.41;100.00;99938.84;5014361;28;20081;-68
2022/12/10 00:26:14;;;;;;;51.90;24.73;;;;;;;-4.42;100.00;99936.38;4997796;28;20443;-67
2022/12/10 00:28:39;;;;;;;49.13;24.67;;;;;;;-4.44;100.00;99938.44;4995266;28;20084;-68
2022/12/10 00:31:06;;;;;;;50.00;24.45;;;;;;;-4.45;100.00;99944.91;5003758;28;20034;-67
2022/12/10 00:33:32;;;;;;;48.90;25.77;;;;;;;-4.45;100.00;99940.31;4981738;28;20120;-68
2022/12/10 00:36:18;;;;;;;47.13;25.85;;;;;;;-4.44;100.00;99944.69;4981338;28;20125;-68
2022/12/10 00:38:44;;;;;;;49.33;24.23;;;;;;;-4.44;100.00;99952.81;5014231;28;20034;-67
2022/12/10 00:41:10;;;;;;;51.33;24.02;;;;;;;-4.46;100.00;99949.47;5001773;28;20504;-68
2022/12/10 00:43:36;;;;;;;48.97;24.20;;;;;;;-4.48;100.00;99948.88;5001970;28;20040;-67
2022/12/10 00:46:02;;;;;;;45.63;24.88;;;;;;;-4.48;100.00;99946.19;5018030;28;20042;-68
2022/12/10 00:48:27;;;;;;;47.72;25.52;;;;;;;-4.47;100.00;99947.81;5001575;28;20041;-68
2022/12/10 00:51:04;;;;;;;48.72;25.08;;;;;;;-4.50;100.00;99940.94;5017829;28;20097;-68
2022/12/10 00:53:30;;;;;;;47.03;24.45;;;;;;;-4.53;100.00;99945.97;5022443;28;20034;-68
2022/12/10 00:55:56;;;;;;;50.25;25.23;;;;;;;-4.56;100.00;99949.09;5002871;28;20391;-68
2022/12/10 00:58:21;;;;;;;46.33;24.77;;;;;;;-4.57;100.00;99950.97;4990136;28;20026;-67
2022/12/10 01:00:47;;;;;;;55.47;28.08;;;;;;;-4.60;100.00;99953.25;5001294;28;20033;-68
2022/12/10 01:03:13;;;;;;;53.25;27.33;;;;;;;-4.61;100.00;99954.31;5014301;28;20026;-68
2022/12/10 01:05:38;;;;;;;57.00;28.48;;;;;;;-4.62;100.00;99947.22;5013630;28;20030;-68
2022/12/10 01:08:04;;;;;;;54.67;26.77;;;;;;;-4.63;100.00;99948.25;5037464;28;20409;-68
2022/12/10 01:10:29;;;;;;;61.28;27.63;;;;;;;-4.65;100.00;99948.47;5020371;28;20118;-68
2022/12/10 01:12:55;;;;;;;53.30;27.17;;;;;;;-4.67;100.00;99953.25;4985038;28;20033;-68
2022/12/10 01:15:20;;;;;;;54.35;27.95;;;;;;;-4.67;100.00;99947.84;5001165;28;20037;-68
2022/12/10 01:17:46;;;;;;;51.90;27.95;;;;;;;-4.70;100.00;99953.69;5001174;28;20056;-67
2022/12/10 01:20:12;;;;;;;51.40;25.75;;;;;;;-4.70;100.00;99944.72;5017029;28;20041;-68
2022/12/10 01:22:37;;;;;;;51.33;25.75;;;;;;;-4.77;100.00;99953.66;5001334;28;20026;-67
2022/12/10 01:25:03;;;;;;;51.97;26.08;;;;;;;-4.77;100.00;99953.66;5013992;28;20060;-68
2022/12/10 01:27:29;;;;;;;51.10;25.02;;;;;;;-4.77;100.00;99955.53;5013106;28;20030;-67
2022/12/10 01:29:54;;;;;;;53.17;25.42;;;;;;;-4.81;100.00;99955.13;5005838;28;20034;-68
2022/12/10 01:32:19;;;;;;;48.33;25.60;;;;;;;-4.79;100.00;99958.47;5016605;28;20034;-68
2022/12/10 01:34:45;;;;;;;47.88;24.38;;;;;;;-4.82;100.00;99961.59;4984179;28;20509;-68
2022/12/10 01:37:10;;;;;;;52.45;25.80;;;;;;;-4.82;100.00;99956.19;5006867;28;20073;-68
2022/12/10 01:39:36;;;;;;;46.60;25.10;;;;;;;-4.82;100.00;99958.03;5007497;28;20477;-68
2022/12/10 01:42:02;;;;;;;49.42;25.35;;;;;;;-4.86;100.00;99962.22;5000571;28;20619;-67
2022/12/10 01:44:28;;;;;;;49.28;24.58;;;;;;;-4.88;100.00;99967.81;5016945;28;20498;-68
2022/12/10 01:46:55;;;;;;;48.05;24.30;;;;;;;-4.87;100.00;99964.09;5016654;28;20053;-68
2022/12/10 01:49:26;;;;;;;45.53;24.17;;;;;;;-4.90;100.00;99966.34;5013386;28;20083;-68
2022/12/10 01:51:55;;;;;;;42.20;23.20;;;;;;;-4.87;100.00;99969.50;5002470;28;20085;-67
2022/12/10 01:54:26;;;;;;;42.88;23.42;;;;;;;-4.90;100.00;99971.78;4997501;28;20026;-67
2022/12/10 01:57:04;;;;;;;45.90;22.48;;;;;;;-4.91;100.00;99987.19;5000046;28;20451;-67
2022/12/10 01:59:29;;;;;;;44.78;23.02;;;;;;;-4.96;100.00;99979.72;5017042;28;20104;-68
2022/12/10 02:02:01;;;;;;;45.90;23.10;;;;;;;-4.94;100.00;99985.72;5000256;28;20034;-67
2022/12/10 02:04:32;;;;;;;43.80;22.63;;;;;;;-4.92;100.00;99982.00;5016644;28;20113;-67
2022/12/10 02:07:04;;;;;;;45.40;22.73;;;;;;;-4.95;100.00;99994.91;5016285;28;20030;-68
2022/12/10 02:09:45;;;;;;;43.78;22.63;;;;;;;-4.99;100.00;99998.22;5016411;28;20048;-68
2022/12/10 02:12:21;;;;;;;43.15;21.85;;;;;;;-5.00;100.00;99997.38;4984026;28;20044;-67
2022/12/10 02:14:58;;;;;;;43.75;22.90;;;;;;;-5.03;100.00;100002.38;5001014;28;20486;-68
2022/12/10 02:17:27;;;;;;;42.58;21.75;;;;;;;-5.04;100.00;99996.16;5054094;28;20033;-68
2022/12/10 02:19:58;;;;;;;42.40;21.92;;;;;;;-5.06;100.00;100002.81;5025000;28;20033;-68
2022/12/10 02:22:26;;;;;;;45.05;22.30;;;;;;;-5.07;100.00;100001.13;5017533;28;20034;-67
2022/12/10 02:24:51;;;;;;;38.17;21.55;;;;;;;-5.06;100.00;100005.50;5000295;28;20033;-67
2022/12/10 02:27:23;;;;;;;44.33;24.42;;;;;;;-5.15;100.00;100010.28;4983716;28;20040;-68
2022/12/10 02:29:48;;;;;;;40.65;22.75;;;;;;;-5.13;100.00;100007.34;4980312;28;20033;-67
2022/12/10 02:32:19;;;;;;;46.83;23.05;;;;;;;-5.07;100.00;100009.25;5031255;28;20034;-67
2022/12/10 02:34:53;;;;;;;39.28;22.00;;;;;;;-5.09;100.00;100008.63;5000518;28;20042;-68
2022/12/10 02:37:33;;;;;;;39.60;21.52;;;;;;;-5.11;100.00;99999.88;5020911;28;20054;-67
2022/12/10 02:40:00;;;;;;;44.90;23.20;;;;;;;-5.13;100.00;100004.66;5031841;28;20038;-67
2022/12/10 02:42:25;;;;;;;42.95;21.92;;;;;;;-5.10;100.00;100006.94;4999865;28;20030;-67
2022/12/10 02:44:51;;;;;;;42.83;23.58;;;;;;;-5.16;100.00;100008.59;4999629;28;20450;-67
2022/12/10 02:47:16;;;;;;;45.90;23.63;;;;;;;-5.17;100.00;100006.94;5015916;28;20034;-67
2022/12/10 02:49:42;;;;;;;43.42;22.70;;;;;;;-5.20;100.00;100013.59;4999224;28;20495;-67
2022/12/10 02:52:09;;;;;;;41.15;21.83;;;;;;;-5.18;100.00;100010.69;4999379;28;20041;-67
2022/12/10 02:54:44;;;;;;;40.47;22.27;;;;;;;-5.14;100.00;100003.81;4998982;28;20091;-67
2022/12/10 02:57:12;;;;;;;41.35;22.10;;;;;;;-5.22;100.00;100002.13;4982045;28;20034;-68
2022/12/10 02:59:55;;;;;;;39.35;21.98;;;;;;;-5.22;100.00;100006.69;5016660;28;20399;-68
2022/12/10 03:02:38;;;;;;;39.72;21.48;;;;;;;-5.21;100.00;100008.38;5014992;28;20426;-67
2022/12/10 03:05:05;;;;;;;;;;;;;;;-5.24;100.00;100003.34;5000141;28;20502;-67
2022/12/10 03:07:39;;;;;;;39.58;21.33;;;;;;;-5.24;100.00;100003.34;4982639;28;20393;-67
2022/12/10 03:10:15;;;;;;;40.15;20.02;;;;;;;-5.24;100.00;100001.50;5015342;28;20072;-68
2022/12/10 03:12:48;;;;;;;37.53;20.20;;;;;;;-5.26;100.00;99998.16;5015345;28;20056;-68
2022/12/10 03:15:14;;;;;;;37.20;20.65;;;;;;;-5.26;100.00;100006.28;4997185;28;20034;-68
2022/12/10 03:17:39;;;;;;;36.97;20.90;;;;;;;-5.31;100.00;100011.47;4998997;28;20064;-68
2022/12/10 03:20:08;;;;;;;38.72;19.70;;;;;;;-5.30;100.00;100009.59;4998572;28;20425;-67
2022/12/10 03:22:33;;;;;;;35.00;19.08;;;;;;;-5.27;100.00;100007.31;4999188;28;20110;-67
2022/12/10 03:24:59;;;;;;;38.03;20.08;;;;;;;-5.29;100.00;100014.81;4998565;28;20067;-68
2022/12/10 03:27:24;;;;;;;38.40;19.95;;;;;;;-5.30;100.00;100006.88;5028206;28;20046;-67
2022/12/10 03:29:54;;;;;;;38.75;20.33;;;;;;;-5.27;100.00;100009.19;4996202;28;20034;-67
2022/12/10 03:32:21;;;;;;;37.55;19.33;;;;;;;-5.27;100.00;100020.84;5014706;28;20034;-67
2022/12/10 03:34:47;;;;;;;33.85;18.90;;;;;;;-5.26;100.00;100019.81;4998454;28;20717;-67
2022/12/10 03:37:13;;;;;;;36.15;20.67;;;;;;;-5.32;100.00;100015.22;4985657;28;20049;-67
2022/12/10 03:39:38;;;;;;;37.45;19.70;;;;;;;-5.28;100.00;100015.66;4998437;28;20064;-67
2022/12/10 03:42:05;;;;;;;33.42;19.77;;;;;;;-5.31;100.00;100016.88;4982715;28;20049;-68
2022/12/10 03:44:35;;;;;;;37.78;18.63;;;;;;;-5.32;100.00;100011.66;4998314;28;20038;-67
2022/12/10 03:47:01;;;;;;;38.20;19.27;;;;;;;-5.30;100.00;100009.59;4982098;28;20036;-68
2022/12/10 03:49:27;;;;;;;35.00;18.05;;;;;;;-5.33;100.00;100007.28;4998126;28;20030;-67
2022/12/10 03:51:52;;;;;;;37.92;18.67;;;;;;;-5.31;100.00;100007.94;5027743;28;20034;-68
2022/12/10 03:54:18;;;;;;;34.33;18.08;;;;;;;-5.30;100.00;100017.72;5018414;28;20030;-67
2022/12/10 03:56:43;;;;;;;31.70;18.42;;;;;;;-5.31;100.00;100021.47;5013960;28;20041;-68
2022/12/10 03:59:09;;;;;;;34.42;18.70;;;;;;;-5.32;100.00;100008.94;5013996;28;20026;-67
2022/12/10 04:01:34;;;;;;;35.38;18.83;;;;;;;-5.31;100.00;100010.63;4998252;28;20098;-68
2022/12/10 04:04:00;;;;;;;32.97;17.75;;;;;;;-5.30;100.00;100020.41;5014424;28;20394;-67
2022/12/10 04:06:25;;;;;;;35.17;18.70;;;;;;;-5.36;100.00;100013.94;4981778;28;20026;-67
2022/12/10 04:08:52;;;;;;;36.20;17.77;;;;;;;-5.36;100.00;100011.22;4997979;28;20038;-67
2022/12/10 04:11:17;;;;;;;32.95;17.92;;;;;;;-5.38;100.00;100016.00;5014451;28;20033;-67
2022/12/10 04:16:27;;;;;;;33.20;18.10;;;;;;;-5.36;100.00;100013.13;5011080;28;20025;-67
2022/12/10 04:19:06;;;;;;;32.63;17.98;;;;;;;-5.38;100.00;100013.31;5034050;28;20076;-67
2022/12/10 04:27:26;;;;;;;35.95;18.02;;;;;;;-5.42;100.00;100006.63;5013100;28;20088;-67
2022/12/10 04:29:51;;;;;;;36.70;17.63;;;;;;;-5.41;100.00;100011.00;5001268;28;20030;-67
2022/12/10 04:32:17;;;;;;;30.55;16.83;;;;;;;-5.43;100.00;100013.09;5036415;28;20115;-67
2022/12/10 04:34:42;;;;;;;34.55;17.73;;;;;;;-5.47;100.00;100007.22;4988619;28;20096;-67
2022/12/10 04:37:08;;;;;;;35.45;17.58;;;;;;;-5.43;100.00;100013.09;5014181;28;20108;-67
2022/12/10 04:39:33;;;;;;;33.97;18.48;;;;;;;-5.43;100.00;100013.09;5014510;28;20068;-67
2022/12/10 04:41:59;;;;;;;34.53;17.63;;;;;;;-5.46;100.00;100008.94;4997764;28;20042;-67
2022/12/10 04:44:24;;;;;;;32.70;17.17;;;;;;;-5.44;100.00;100012.25;4997722;28;20018;-67
2022/12/10 04:46:50;;;;;;;35.40;18.77;;;;;;;-5.49;100.00;100016.59;4997415;28;20026;-68
2022/12/10 04:49:16;;;;;;;36.92;20.85;;;;;;;-5.56;100.00;100027.41;5014140;28;20030;-67
2022/12/10 04:51:41;;;;;;;31.95;17.55;;;;;;;-5.53;100.00;100021.56;4981275;28;20057;-67
2022/12/10 04:54:07;;;;;;;37.55;18.95;;;;;;;-5.51;100.00;100029.50;4997471;28;20041;-67
2022/12/10 04:56:33;;;;;;;35.50;17.52;;;;;;;-5.47;100.00;100028.06;5003609;28;20112;-67
2022/12/10 04:58:58;;;;;;;37.30;18.73;;;;;;;-5.49;100.00;100027.41;4989704;28;20083;-68
2022/12/10 05:01:24;;;;;;;33.83;18.42;;;;;;;-5.51;100.00;100035.75;5020279;28;20026;-67
2022/12/10 05:03:50;;;;;;;34.17;17.83;;;;;;;-5.55;100.00;100030.94;5020812;28;20030;-67
2022/12/10 05:06:16;;;;;;;35.78;18.70;;;;;;;-5.58;100.00;100032.16;4997243;28;20617;-67
2022/12/10 05:08:41;;;;;;;35.85;18.25;;;;;;;-5.58;100.00;100028.63;4997365;28;20030;-67
2022/12/10 05:11:10;;;;;;;33.60;18.20;;;;;;;-5.60;100.00;100031.53;4997458;28;20395;-67
2022/12/10 05:13:35;;;;;;;37.30;18.08;;;;;;;-5.57;100.00;100033.00;4997585;28;20030;-67
2022/12/10 05:16:02;;;;;;;33.97;19.08;;;;;;;-5.60;100.00;100031.53;4965092;28;20034;-68
2022/12/10 05:18:27;;;;;;;31.98;17.02;;;;;;;-5.56;100.00;100026.56;4997473;28;20084;-68
2022/12/10 05:20:53;;;;;;;38.15;18.02;;;;;;;-5.59;100.00;100029.66;5013285;28;20030;-67
2022/12/10 05:23:27;;;;;;;29.48;16.50;;;;;;;-5.61;100.00;100025.28;4997474;28;20026;-68
2022/12/10 05:26:04;;;;;;;32.95;16.98;;;;;;;-5.62;100.00;100031.72;4981805;28;20704;-67
2022/12/10 05:28:30;;;;;;;34.05;16.92;;;;;;;-5.59;100.00;100037.78;5015460;28;20478;-67
2022/12/10 05:30:56;;;;;;;36.92;18.35;;;;;;;-5.63;100.00;100040.91;5009824;28;20105;-68
2022/12/10 05:33:21;;;;;;;31.95;16.73;;;;;;;-5.66;100.00;100041.28;4968389;28;20026;-67
2022/12/10 05:36:01;;;;;;;30.33;16.90;;;;;;;-5.68;100.00;100037.94;4968359;28;20524;-67
2022/12/10 05:38:26;;;;;;;30.10;15.60;;;;;;;-5.71;100.00;100038.34;5017380;28;20037;-67
2022/12/10 05:40:52;;;;;;;32.75;16.80;;;;;;;-5.72;100.00;100041.25;4984241;28;20030;-68
2022/12/10 05:43:18;;;;;;;28.90;15.82;;;;;;;-5.77;100.00;100036.41;5000477;28;20034;-68
2022/12/10 05:45:43;;;;;;;32.70;16.63;;;;;;;-5.80;100.00;100039.53;5016759;28;20037;-68
2022/12/10 05:48:10;;;;;;;32.13;16.65;;;;;;;-5.79;100.00;100041.22;5000588;28;20033;-70
2022/12/10 05:50:35;;;;;;;31.25;16.63;;;;;;;-5.80;100.00;100050.34;5000387;28;20033;-70
2022/12/10 05:53:01;;;;;;;27.95;15.20;;;;;;;-5.85;100.00;100047.41;5034133;28;20441;-70
2022/12/10 05:55:28;;;;;;;26.25;15.35;;;;;;;-5.82;100.00;100051.56;5033696;28;20083;-70
2022/12/10 05:57:54;;;;;;;30.67;15.93;;;;;;;-5.82;100.00;100051.56;5029718;28;20041;-67
2022/12/10 06:00:21;;;;;;;28.75;15.57;;;;;;;-5.78;100.00;100053.69;5032922;28;20383;-67
2022/12/10 06:02:46;;;;;;;26.00;14.98;;;;;;;-5.77;100.00;100057.22;5016638;28;20060;-68
2022/12/10 06:05:12;;;;;;;29.58;14.77;;;;;;;-5.83;100.00;100050.75;5016322;28;20030;-68
2022/12/10 06:07:37;;;;;;;25.90;15.07;;;;;;;-5.85;100.00;100052.81;5016664;28;20045;-67
2022/12/10 06:10:03;;;;;;;27.83;15.15;;;;;;;-5.84;100.00;100051.78;5011059;28;20026;-67
2022/12/10 06:12:28;;;;;;;27.90;15.05;;;;;;;-5.87;100.00;100047.63;5022915;28;20061;-68
2022/12/10 06:14:54;;;;;;;29.13;15.15;;;;;;;-5.93;100.00;100051.13;5025396;28;20034;-67
2022/12/10 06:17:19;;;;;;;28.83;15.80;;;;;;;-5.94;100.00;100054.88;5000111;28;20034;-67
2022/12/10 06:19:45;;;;;;;30.35;15.43;;;;;;;-5.88;100.00;100053.22;4999951;28;20445;-67
2022/12/10 06:22:10;;;;;;;28.27;15.00;;;;;;;-5.93;100.00;100053.81;4983615;28;20026;-68
2022/12/10 06:24:36;;;;;;;29.92;15.73;;;;;;;-5.97;100.00;100057.13;5000179;28;20029;-67
2022/12/10 06:27:01;;;;;;;26.85;15.02;;;;;;;-5.98;100.00;100058.19;4999780;28;20026;-67
2022/12/10 06:29:27;;;;;;;28.75;14.73;;;;;;;-6.01;100.00;100059.41;5007043;28;20053;-67
2022/12/10 06:31:52;;;;;;;29.77;15.05;;;;;;;-6.05;100.00;100066.22;5011989;28;20038;-67
2022/12/10 06:34:18;;;;;;;26.95;15.27;;;;;;;-6.06;100.00;100059.16;4999615;28;20053;-68
2022/12/10 06:36:43;;;;;;;26.20;14.57;;;;;;;-6.07;100.00;100063.75;4982444;28;20058;-68
2022/12/10 06:39:09;;;;;;;25.92;14.95;;;;;;;-6.09;100.00;100062.25;5016991;28;20030;-67
2022/12/10 06:41:34;;;;;;;25.92;13.98;;;;;;;-6.11;100.00;100064.31;5015785;28;20030;-67
2022/12/10 06:44:00;;;;;;;23.75;14.18;;;;;;;-6.14;100.00;100070.13;4999537;28;20040;-67
2022/12/10 06:46:27;;;;;;;26.85;15.68;;;;;;;-6.15;100.00;100071.16;4999141;28;20026;-67
2022/12/10 06:48:52;;;;;;;23.13;13.52;;;;;;;-6.12;100.00;100073.47;4999826;28;20105;-67
2022/12/10 06:51:18;;;;;;;32.45;15.65;;;;;;;-6.14;100.00;100075.53;5015496;28;20597;-67
2022/12/10 06:53:43;;;;;;;27.83;14.10;;;;;;;-6.13;100.00;100077.19;4979571;28;20018;-68
2022/12/10 06:56:17;;;;;;;27.00;13.98;;;;;;;-6.17;100.00;100082.16;4996026;28;20564;-67
2022/12/10 06:58:43;;;;;;;26.25;14.18;;;;;;;-6.14;100.00;100080.94;4999051;28;20026;-67
2022/12/10 07:01:14;;;;;;;24.42;13.35;;;;;;;-6.15;100.00;100090.09;4999358;28;20022;-67
2022/12/10 07:03:39;;;;;;;23.45;13.77;;;;;;;-6.17;100.00;100082.16;5000015;28;20056;-67
2022/12/10 07:06:05;;;;;;;28.27;13.88;;;;;;;-6.22;100.00;100087.31;4998855;28;20482;-68
2022/12/10 07:08:31;;;;;;;28.98;14.32;;;;;;;-6.19;100.00;100086.91;4982801;28;20048;-67
2022/12/10 07:10:57;;;;;;;27.20;13.80;;;;;;;-6.17;100.00;100089.44;4998990;28;20034;-68
2022/12/10 07:13:22;;;;;;;23.85;13.35;;;;;;;-6.17;100.00;100090.25;4999203;28;20495;-67
2022/12/10 07:15:48;;;;;;;24.45;13.45;;;;;;;-6.20;100.00;100090.66;4999968;28;20034;-68
2022/12/10 07:18:13;;;;;;;25.05;13.43;;;;;;;-6.20;100.00;100093.38;5031753;28;20041;-68
2022/12/10 07:20:39;;;;;;;24.90;13.25;;;;;;;-6.22;100.00;100087.31;5019354;28;20025;-67
2022/12/10 07:23:04;;;;;;;23.20;13.15;;;;;;;-6.25;100.00;100090.41;5015251;28;20029;-67
2022/12/10 07:25:30;;;;;;;25.92;13.68;;;;;;;-6.21;100.00;100096.25;5028229;28;20045;-67
2022/12/10 07:27:55;;;;;;;25.45;13.48;;;;;;;-6.21;100.00;100091.69;5015222;28;20518;-67
2022/12/10 07:30:21;;;;;;;26.70;13.63;;;;;;;-6.18;100.00;100101.28;5013441;28;20018;-68
2022/12/10 07:32:46;;;;;;;24.55;13.25;;;;;;;-6.16;100.00;100105.44;5031446;28;20038;-67
2022/12/10 07:35:12;;;;;;;26.08;14.27;;;;;;;-6.19;100.00;100118.53;5022148;28;20021;-67
2022/12/10 07:37:37;;;;;;;27.05;14.45;;;;;;;-6.20;100.00;100120.41;4998639;28;20054;-68
2022/12/10 07:40:03;;;;;;;25.20;14.38;;;;;;;-6.19;100.00;100118.53;4966079;28;20025;-67
2022/12/10 07:42:29;;;;;;;27.15;14.68;;;;;;;-6.18;100.00;100126.44;4998609;28;20034;-67
2022/12/10 07:44:54;;;;;;;24.67;14.57;;;;;;;-6.20;100.00;100120.41;5011613;28;20034;-67
2022/12/10 07:47:20;;;;;;;25.80;15.00;;;;;;;-6.21;100.00;100120.56;5005071;28;20037;-67
2022/12/10 07:49:45;;;;;;;26.80;15.13;;;;;;;-6.20;100.00;100123.09;4997992;28;20037;-67
2022/12/10 07:52:10;;;;;;;27.55;15.77;;;;;;;-6.16;100.00;100131.63;5014712;28;20076;-67
2022/12/10 07:54:36;;;;;;;25.67;14.07;;;;;;;-6.18;100.00;100122.91;4982233;28;20398;-67
2022/12/10 07:57:02;;;;;;;24.50;14.70;;;;;;;-6.18;100.00;100131.03;4997255;28;20023;-67
2022/12/10 07:59:27;;;;;;;24.25;13.43;;;;;;;-6.18;100.00;100145.38;4982290;28;20216;-67
2022/12/10 08:01:53;;;;;;;25.30;15.10;;;;;;;-6.18;100.00;100137.25;4998155;28;20033;-67
2022/12/10 08:04:18;;;;;;;25.75;14.80;;;;;;;-6.17;100.00;100146.19;5014622;28;20033;-67
2022/12/10 08:06:44;;;;;;;25.80;14.43;;;;;;;-6.14;100.00;100145.81;4981971;28;20022;-68
2022/12/10 08:09:09;;;;;;;24.00;13.05;;;;;;;-6.15;100.00;100144.97;5014516;28;20080;-67
2022/12/10 08:11:35;;;;;;;26.85;15.52;;;;;;;-6.14;100.00;100149.34;5014457;28;20030;-68
2022/12/10 08:14:00;;;;;;;23.75;14.05;;;;;;;-6.10;100.00;100145.25;4981853;28;20041;-67
2022/12/10 08:16:27;;;;;;;27.83;15.57;;;;;;;-6.07;100.00;100157.53;5015722;28;20038;-67
2022/12/10 08:18:54;;;;;;;26.30;15.52;;;;;;;-6.03;100.00;100150.69;4998139;28;20113;-67
2022/12/10 08:21:21;;;;;;;26.33;14.73;;;;;;;-6.04;100.00;100158.97;4981486;28;20116;-67
2022/12/10 08:23:46;;;;;;;26.20;15.52;;;;;;;-5.99;100.00;100160.09;5035384;28;20029;-68
2022/12/10 08:26:13;;;;;;;24.17;14.73;;;;;;;-5.94;100.00;100157.63;5022974;28;20036;-67
2022/12/10 08:28:39;;;;;;;27.92;16.15;;;;;;;-5.89;100.00;100163.25;5028132;28;20029;-67
2022/12/10 08:31:05;;;;;;;26.88;15.20;;;;;;;-5.88;100.00;100178.47;5002047;28;20026;-67
2022/12/10 08:33:33;;;;;;;23.33;14.80;;;;;;;-5.81;100.00;100167.69;5030607;28;20026;-68
2022/12/10 08:35:59;;;;;;;28.40;15.57;;;;;;;-5.74;100.00;100181.25;4997806;28;20107;-68
2022/12/10 08:38:25;;;;;;;28.15;16.27;;;;;;;-5.67;100.00;100180.28;4998050;28;20045;-68
2022/12/10 08:40:51;;;;;;;29.38;16.38;;;;;;;-5.59;100.00;100187.44;4981512;28;20025;-68
2022/12/10 08:43:16;;;;;;;31.52;16.63;;;;;;;-5.50;100.00;100182.72;4981710;28;20080;-68
2022/12/10 08:45:41;;;;;;;29.08;16.38;;;;;;;-5.42;100.00;100183.38;5010036;28;20050;-67
2022/12/10 08:48:07;;;;;;;29.40;16.38;;;;;;;-5.30;100.00;100189.09;4997028;28;20052;-67
2022/12/10 08:50:32;;;;;;;31.88;16.92;;;;;;;-5.21;100.00;100185.19;4997536;28;20030;-67
2022/12/10 08:52:58;;;;;;;32.35;18.45;;;;;;;-5.09;100.00;100180.06;5013943;28;20176;-67
2022/12/10 08:55:23;;;;;;;31.67;18.08;;;;;;;-4.98;100.00;100178.66;5030325;28;20489;-67
2022/12/10 08:57:49;;;;;;;33.38;17.75;;;;;;;-4.86;100.00;100177.03;5013086;28;20033;-67
2022/12/10 09:00:15;;;;;;;35.42;19.92;;;;;;;-4.76;100.00;100177.50;5014984;28;20391;-67
2022/12/10 09:02:40;;;;;;;35.25;18.58;;;;;;;-4.63;100.00;100186.72;5001567;28;20106;-68
2022/12/10 09:05:07;;;;;;;38.78;20.85;;;;;;;-4.53;100.00;100177.16;4991818;28;20048;-67
2022/12/10 09:07:32;;;;;;;37.95;20.98;;;;;;;-4.42;100.00;100181.16;4985540;28;20030;-67
2022/12/10 09:09:58;;;;;;;40.15;22.20;;;;;;;-4.27;100.00;100181.81;5001264;28;20548;-68
2022/12/10 09:12:23;;;;;;;37.35;22.02;;;;;;;-4.18;100.00;100185.19;5017756;28;20035;-68
2022/12/10 09:14:49;;;;;;;41.17;22.67;;;;;;;-4.08;100.00;100174.75;5017828;28;20034;-68
2022/12/10 09:17:14;;;;;;;39.55;21.55;;;;;;;-3.96;100.00;100177.69;5017561;28;20056;-67
2022/12/10 09:19:43;;;;;;;39.20;23.23;;;;;;;-3.86;100.00;100177.31;4984852;28;20064;-79
2022/12/10 09:22:08;;;;;;;41.75;23.13;;;;;;;-3.75;100.00;100178.56;5005049;28;20037;-68
2022/12/10 09:24:34;;;;;;;43.50;24.75;;;;;;;-3.65;100.00;100185.25;5043252;28;20593;-67
2022/12/10 09:27:00;;;;;;;43.28;23.40;;;;;;;-3.55;100.00;100190.25;5017703;28;20052;-67
2022/12/10 09:29:26;;;;;;;44.45;24.00;;;;;;;-3.45;100.00;100189.84;5024604;28;20026;-68
2022/12/10 09:31:51;;;;;;;43.47;24.35;;;;;;;-3.35;100.00;100192.94;5012392;28;20038;-67
2022/12/10 09:34:17;;;;;;;41.00;23.50;;;;;;;-3.24;100.00;100191.47;5000850;28;20034;-68
2022/12/10 09:36:42;;;;;;;41.55;23.98;;;;;;;-3.13;100.00;100193.53;5000719;28;20042;-67
2022/12/10 09:39:08;;;;;;;43.17;23.23;;;;;;;-3.02;100.00;100192.03;5017414;28;20029;-67
2022/12/10 09:41:41;;;;;;;39.88;21.73;;;;;;;-2.92;100.00;100185.13;4999810;28;20498;-68
2022/12/10 09:44:37;;;;;;;43.40;23.65;;;;;;;-2.76;100.00;100193.84;5017227;28;20034;-67
2022/12/10 09:47:03;;;;;;;40.33;23.10;;;;;;;-2.64;100.00;100192.13;5021583;28;20059;-68
2022/12/10 09:49:41;;;;;;;42.10;23.77;;;;;;;-2.52;100.00;100195.00;5005451;28;20030;-67
2022/12/10 09:52:11;;;;;;;41.95;23.02;;;;;;;-2.39;100.00;100194.13;5000516;28;20558;-68
2022/12/10 09:54:47;;;;;;;40.15;23.48;;;;;;;-2.29;100.00;100199.91;5000310;28;20033;-68
2022/12/10 09:57:22;;;;;;;42.90;24.15;;;;;;;-2.17;100.00;100203.63;4999978;28;20031;-67
2022/12/10 09:59:48;;;;;;;44.58;24.50;;;;;;;-2.05;100.00;100207.31;5000710;28;20482;-68
2022/12/10 10:02:25;;;;;;;42.80;22.88;;;;;;;-1.91;100.00;100207.25;5000510;28;20076;-68
2022/12/10 10:04:53;;;;;;;38.60;22.80;;;;;;;-1.77;100.00;100207.97;5021455;28;20041;-68
2022/12/10 10:07:25;;;;;;;41.05;23.80;;;;;;;-1.65;100.00;100209.75;5030834;28;20430;-68
2022/12/10 10:09:55;;;;;;;44.80;25.70;;;;;;;-1.53;100.00;100209.03;5016587;28;20056;-68
2022/12/10 10:12:20;;;;;;;49.55;28.88;;;;;;;-1.43;100.00;100218.38;4999513;28;20118;-68
2022/12/10 10:14:46;;;;;;;55.63;29.85;;;;;;;-1.32;100.00;100216.81;5000311;28;20037;-68
2022/12/10 10:17:30;;;;;;;45.33;27.35;;;;;;;-1.20;100.00;100214.19;5000177;28;20041;-68
2022/12/10 10:19:56;;;;;;;40.88;25.70;;;;;;;-1.07;100.00;100214.06;4983933;28;20022;-72
2022/12/10 10:22:21;;;;;;;44.72;26.15;;;;;;;-0.98;100.00;100210.00;4983725;28;20025;-68
2022/12/10 10:24:47;;;;;;;44.47;25.67;;;;;;;-0.87;100.00;100211.13;5016121;28;20038;-67
2022/12/10 10:27:21;;;;;;;44.05;25.95;;;;;;;-0.76;100.00;100217.72;4999129;28;20029;-68
2022/12/10 10:29:49;;;;;;;47.50;26.45;;;;;;;-0.67;100.00;100210.91;5000014;28;20041;-67
2022/12/10 10:32:18;;;;;;;41.22;25.33;;;;;;;-0.56;100.00;100212.03;5032270;28;20037;-67
2022/12/10 10:34:44;;;;;;;42.53;25.63;;;;;;;-0.48;100.00;100196.19;5035739;28;20033;-68
2022/12/10 10:37:30;;;;;;;48.60;26.70;;;;;;;-0.35;100.00;100206.13;4983942;28;20064;-67
2022/12/10 10:39:55;;;;;;;43.38;26.05;;;;;;;-0.25;100.00;100198.22;5012966;28;20105;-67
2022/12/10 10:42:38;;;;;;;39.97;24.25;;;;;;;-0.14;100.00;100193.88;4982669;28;20033;-67
2022/12/10 10:45:05;;;;;;;39.28;24.67;;;;;;;-0.02;100.00;100191.19;4995149;28;20176;-67
2022/12/10 10:47:32;;;;;;;37.08;22.75;;;;;;;0.07;100.00;100192.53;4994621;28;20052;-67
2022/12/10 10:49:58;;;;;;;39.55;22.60;;;;;;;0.16;100.00;100188.38;4999187;28;20033;-67
2022/12/10 10:52:35;;;;;;;35.13;21.58;;;;;;;0.27;100.00;100186.75;5016357;28;20038;-67
2022/12/10 10:55:00;;;;;;;38.05;21.13;;;;;;;0.36;100.00;100185.38;5038089;28;20033;-67
2022/12/10 10:57:33;;;;;;;35.47;20.40;;;;;;;0.45;100.00;100183.13;4980660;28;20026;-68
2022/12/10 11:00:28;;;;;;;28.38;18.85;;;;;;;0.57;100.00;100170.28;4999097;28;20137;-68
2022/12/10 11:02:54;;;;;;;28.50;18.38;;;;;;;0.65;100.00;100178.13;5011203;28;20042;-67
2022/12/10 11:05:26;;;;;;;28.40;18.73;;;;;;;0.74;100.00;100178.63;5039421;28;20036;-67
2022/12/10 11:08:17;;;;;;;25.40;16.48;;;;;;;0.83;100.00;100179.09;5035302;28;20030;-68
2022/12/10 11:10:50;;;;;;;26.90;16.75;;;;;;;0.92;100.00;100169.47;5020238;28;20563;-68
2022/12/10 11:13:23;;;;;;;27.77;16.77;;;;;;;1.01;100.00;100169.94;5019060;28;20034;-68
2022/12/10 11:15:58;;;;;;;;;;;;;;;1.09;100.00;100173.13;4986674;28;20667;-67